Simpson, Louisiana
Current Conditions -  °F | °C
As of 2:58 PM on Tuesday 25 Nov 2014 (Local Time) from KPOE Reporting Station
Clear Clear  
Wind Chill: 59°   Ceiling: Unl
Heat Index: 59°   Visibility: 10mi
Dew Point: 29°   Wind: 9mph
Humidity: 33%   Direction: 350°N
Pressure: 30.2"   Gusts: NA
Location:  31.25°N, 93.02°W
Report Text: KPOE 252058Z AUTO 35008KT 10SM CLR 15/M02 A3020 RMK AO2 SLP230 T01481016 56017
Loading
Personal Weather Stations






























Interactive Weather Map New forecast layout! Learn more

10-Day Weather Forecast

Advertisements
Track Severe Weather on mobile